In Rescue
 
Open Full Screen Window  High Contrast Mode
Wind Gusting 00 knots
04
February 23, 2019 8:55 PM PST
Weather Information
Wind Direction
  190 °
Wind Speed
  04 kt (5 mph)
Wind Gust
  00 kt (0 mph)
Altimeter
30.31 in
Visibility
10 SM
Temperature
08° C
46° F
Dewpoint
05° C
41° F
Humidity
82%
1hr Rain Fall
00.00 in.
24hr Rain Fall
00.00 in.
Sky Condition
Clear
VFR

METAR KCVH 240455Z AUTO 19004KT 10SM CLR 08/05 A3031 RMK A01

FAA Disclaimer: The data displayed is for advisory purposes only and is not to be used for flight planning or operations.